Tropical Cyclones
[Index]
Main Index Home Page Stock Weather Photos Extreme Storms Discussion Storm News and Storm Chasing Reports Tropical Cyclones / Hurricanes / Typhoons Weather Data and Links Wild Fires / Bushfires Weather Observation Techniques Weather Picture Catalogue Tornado Pictures and Reports Stock Video Footage and DVDs for sale
Season 1975-1976 Tropical Cyclone KIM Track Map
Season 1975-1976 Summaries: [BoM-AU] [JTWC-AU] [JTWC-SIO] [JTWC-SPAC] [JTWC-SH]
<<- Previous TC | JTWC 1975-1976 Season | Next TC ->>

click for intensity scale information  Lat/long Grid: Show Hide

 Date Labels: Show Hide

Joint Typhoon Warning Centre Cyclone Data

Name: KIM
Number: 909 / 7605

01 Dec 1975 00:00 UTC to 10 Dec 1975 00:00 UTC

    date/time    lat    long     hPa   cat  kts
1975-12-01 00   10.5   135.8                  25          
1975-12-01 06   11.0   136.4                  25          
1975-12-01 12   11.2   136.7                  20          
1975-12-01 18   11.1   136.8                  20          
1975-12-02 00   11.0   136.8                  20          
1975-12-02 06   11.1   136.9                  25          
1975-12-02 12   11.4   137.0                  25          
1975-12-02 18   12.0   137.1                  25          
1975-12-03 00   12.6   137.1                  25          
1975-12-03 06   12.5   137.0                  35          
1975-12-03 12   12.3   136.8            1     45          
1975-12-03 18   12.5   136.4            1     40          
1975-12-04 00   12.6   136.1                  30          
1975-12-04 06   12.4   135.9                  30          
1975-12-04 12   12.2   135.8                  30          
1975-12-04 18   12.2   135.6                  25          
1975-12-05 00   12.2   135.4                  25          
1975-12-05 06   12.3   134.7                  25          
1975-12-05 12   12.6   133.8                  25          
1975-12-05 18   13.0   133.4                  25          
1975-12-06 00   13.4   133.2                  25          
1975-12-06 06   14.0   133.1                  30          
1975-12-06 12   14.5   133.3                  30          
1975-12-06 18   14.8   133.9                  25          
1975-12-07 00   14.7   134.6                  25          
1975-12-07 06   14.5   135.1                  25          
1975-12-07 12   14.2   135.5                  30          
1975-12-07 18   13.9   135.7                  30          
1975-12-08 00   13.5   136.0                  30          
1975-12-08 06   13.1   136.6                  30          
1975-12-08 12   12.7   137.3                  35          
1975-12-08 18   12.4   138.0                  35          
1975-12-09 00   12.3   138.7            1     40          
1975-12-09 06   12.4   139.5            1     40          
1975-12-09 12   12.9   140.4            1     45          
1975-12-09 18   13.8   141.1            1     40          
1975-12-10 00   15.1   141.8                  30          
Winds are 1-min average.

Tropical cyclone tracks developed by Michael Bath using data from the Joint Typhoon Warning Centre Best Tracks and Google Maps.


[Australian Severe Weather index] [Copyright Notice] [Email Contacts] [Search This Site] [Privacy Policy]
Document: tropical_cyclone_kim.htm Updated: 18 September 2016